createdAt,value
2019-06-07T00:02:25.107Z,15.20
2019-06-07T00:04:51.313Z,15.20
2019-06-07T00:07:21.409Z,15.20
2019-06-07T00:09:45.861Z,15.10
2019-06-07T00:12:14.056Z,15.10
2019-06-07T00:14:40.183Z,15.10
2019-06-07T00:17:07.950Z,15.10
2019-06-07T00:19:34.443Z,15.00
2019-06-07T00:22:16.558Z,15.00
2019-06-07T00:24:28.861Z,14.90
2019-06-07T00:26:58.973Z,14.90
2019-06-07T00:29:23.768Z,14.90
2019-06-07T00:31:50.073Z,14.80
2019-06-07T00:34:17.095Z,14.80
2019-06-07T00:36:44.354Z,14.80
2019-06-07T00:39:13.480Z,14.80
2019-06-07T00:41:38.840Z,14.80
2019-06-07T00:44:05.094Z,14.70
2019-06-07T00:46:31.354Z,14.70
2019-06-07T00:48:57.653Z,14.70
2019-06-07T00:51:24.048Z,14.70
2019-06-07T00:53:50.996Z,14.60
2019-06-07T00:56:20.194Z,14.50
2019-06-07T00:58:45.494Z,14.60
2019-06-07T01:01:13.071Z,14.50
2019-06-07T01:03:42.678Z,14.50
2019-06-07T01:06:08.865Z,14.50
2019-06-07T01:08:35.079Z,14.40
2019-06-07T01:11:01.327Z,14.40
2019-06-07T01:13:27.734Z,14.40
2019-06-07T01:15:53.994Z,14.40
2019-06-07T01:18:41.136Z,14.30
2019-06-07T01:20:48.493Z,14.30
2019-06-07T01:23:56.607Z,14.30
2019-06-07T01:25:42.908Z,14.30
2019-06-07T01:28:09.140Z,14.30
2019-06-07T01:30:35.636Z,14.20
2019-06-07T01:33:02.027Z,14.20
2019-06-07T01:35:29.821Z,14.20
2019-06-07T01:37:56.325Z,14.20
2019-06-07T01:40:27.784Z,14.10
2019-06-07T01:42:51.301Z,14.10
2019-06-07T01:45:19.471Z,14.10
2019-06-07T01:47:45.925Z,14.10
2019-06-07T01:50:12.684Z,14.00
2019-06-07T01:52:38.967Z,14.00
2019-06-07T01:55:06.448Z,14.00
2019-06-07T01:57:45.424Z,14.00
2019-06-07T02:00:01.323Z,14.00
2019-06-07T02:02:30.022Z,14.00
2019-06-07T02:04:56.086Z,13.90
2019-06-07T02:07:26.894Z,13.90
2019-06-07T02:09:50.577Z,13.90
2019-06-07T02:12:27.992Z,13.90
2019-06-07T02:14:44.868Z,13.90
2019-06-07T02:17:11.258Z,13.90
2019-06-07T02:19:37.487Z,13.90
2019-06-07T02:22:03.681Z,13.90
2019-06-07T02:24:35.143Z,13.90
2019-06-07T02:26:57.916Z,13.90
2019-06-07T02:29:25.462Z,13.90
2019-06-07T02:31:52.223Z,13.90
2019-06-07T02:34:18.416Z,13.90
2019-06-07T02:36:44.753Z,14.00
2019-06-07T02:39:10.997Z,14.00
2019-06-07T02:41:40.439Z,14.00
2019-06-07T02:44:07.170Z,14.00
2019-06-07T02:46:44.830Z,14.00
2019-06-07T02:49:01.768Z,14.00
2019-06-07T02:51:33.527Z,13.90
2019-06-07T02:53:56.105Z,13.90
2019-06-07T02:56:54.036Z,13.80
2019-06-07T02:58:50.442Z,13.80
2019-06-07T03:01:19.293Z,13.70
2019-06-07T03:03:45.585Z,13.70
2019-06-07T03:06:15.075Z,13.70
2019-06-07T03:08:44.049Z,13.70
2019-06-07T03:11:12.027Z,13.60
2019-06-07T03:13:41.199Z,13.60
2019-06-07T03:16:09.601Z,13.60
2019-06-07T03:18:55.262Z,13.60
2019-06-07T03:21:23.457Z,13.60
2019-06-07T03:23:53.189Z,13.50
2019-06-07T03:26:25.151Z,13.50
2019-06-07T03:28:52.905Z,13.50
2019-06-07T03:31:19.202Z,13.50
2019-06-07T03:33:45.880Z,13.50
2019-06-07T03:36:23.474Z,13.50
2019-06-07T03:38:40.466Z,13.50
2019-06-07T03:41:06.757Z,13.50
2019-06-07T03:43:37.765Z,13.50
2019-06-07T03:46:01.442Z,13.50
2019-06-07T03:48:28.846Z,13.50
2019-06-07T03:51:04.255Z,13.50
2019-06-07T03:53:24.311Z,13.50
2019-06-07T03:55:50.745Z,13.50
2019-06-07T03:58:31.204Z,13.50
2019-06-07T04:00:45.282Z,13.50
2019-06-07T04:03:32.460Z,13.50
2019-06-07T04:05:43.285Z,13.50
2019-06-07T04:08:07.825Z,13.50
2019-06-07T04:10:54.977Z,13.50
2019-06-07T04:13:02.261Z,13.50
2019-06-07T04:15:28.443Z,13.50
2019-06-07T04:18:01.782Z,13.60
2019-06-07T04:20:22.909Z,13.60
2019-06-07T04:22:49.264Z,13.70
2019-06-07T04:25:15.445Z,13.70
2019-06-07T04:27:42.211Z,13.70
2019-06-07T04:30:09.062Z,13.80
2019-06-07T04:32:37.063Z,13.80
2019-06-07T04:35:04.598Z,13.90
2019-06-07T04:37:33.257Z,13.90
2019-06-07T04:40:00.411Z,14.00
2019-06-07T04:42:29.974Z,14.10
2019-06-07T04:44:58.382Z,14.10
2019-06-07T04:47:25.128Z,14.30
2019-06-07T04:49:54.239Z,14.30
2019-06-07T04:52:20.611Z,14.40
2019-06-07T04:54:46.995Z,14.50
2019-06-07T04:57:13.408Z,14.50
2019-06-07T05:00:10.526Z,14.60
2019-06-07T05:02:07.808Z,14.70
2019-06-07T05:04:34.957Z,14.70
2019-06-07T05:07:02.090Z,14.80
2019-06-07T05:09:32.450Z,14.90
2019-06-07T05:11:58.660Z,14.90
2019-06-07T05:14:25.003Z,15.00
2019-06-07T05:16:51.297Z,15.10
2019-06-07T05:19:17.475Z,15.10
2019-06-07T05:22:01.932Z,15.20
2019-06-07T05:24:11.776Z,15.30
2019-06-07T05:26:40.432Z,15.40
2019-06-07T05:29:06.047Z,15.40
2019-06-07T05:31:37.501Z,15.50
2019-06-07T05:34:03.455Z,15.60
2019-06-07T05:36:31.351Z,15.70
2019-06-07T05:38:57.722Z,15.80
2019-06-07T05:41:23.907Z,15.90
2019-06-07T05:44:11.188Z,16.00
2019-06-07T05:46:18.265Z,16.10
2019-06-07T05:48:44.589Z,16.20
2019-06-07T05:51:10.924Z,16.30
2019-06-07T05:53:39.008Z,16.30
2019-06-07T05:56:05.406Z,16.40
2019-06-07T05:58:32.717Z,16.40
2019-06-07T06:01:40.842Z,16.50
2019-06-07T06:03:27.182Z,16.60
2019-06-07T06:05:55.424Z,16.70
2019-06-07T06:08:21.501Z,16.70
2019-06-07T06:10:48.839Z,16.80
2019-06-07T06:13:15.330Z,16.90
2019-06-07T06:15:50.825Z,17.00
2019-06-07T06:18:09.682Z,17.00
2019-06-07T06:21:00.927Z,17.10
2019-06-07T06:23:04.011Z,17.10
2019-06-07T06:25:32.875Z,17.20
2019-06-07T06:28:16.112Z,17.20
2019-06-07T06:30:26.879Z,17.30
2019-06-07T06:32:58.143Z,17.40
2019-06-07T06:35:21.326Z,17.40
2019-06-07T06:37:52.954Z,17.50
2019-06-07T06:40:16.458Z,17.50
2019-06-07T06:42:44.698Z,17.60
2019-06-07T06:45:12.153Z,17.70
2019-06-07T06:47:38.657Z,17.70
2019-06-07T06:50:06.522Z,17.80
2019-06-07T06:52:32.931Z,17.80
2019-06-07T06:55:00.942Z,17.90
2019-06-07T06:57:27.871Z,18.00
2019-06-07T06:59:54.493Z,18.10
2019-06-07T07:02:20.751Z,18.20
2019-06-07T07:04:48.747Z,18.30
2019-06-07T07:07:15.492Z,18.40
2019-06-07T07:09:45.523Z,18.50
2019-06-07T07:12:12.762Z,18.60
2019-06-07T07:14:42.984Z,18.70
2019-06-07T07:17:08.989Z,18.70
2019-06-07T07:19:35.237Z,18.70
2019-06-07T07:22:01.638Z,18.80
2019-06-07T07:24:28.019Z,18.80
2019-06-07T07:26:58.330Z,19.00
2019-06-07T07:29:22.668Z,19.10
2019-06-07T07:31:52.391Z,19.20
2019-06-07T07:34:34.457Z,19.30
2019-06-07T07:36:48.195Z,19.40
2019-06-07T07:39:13.321Z,19.40
2019-06-07T07:41:39.515Z,19.60
2019-06-07T07:44:07.448Z,19.70
2019-06-07T07:46:33.815Z,19.80
2019-06-07T07:49:00.109Z,19.90
2019-06-07T07:51:26.399Z,20.00
2019-06-07T07:54:01.429Z,20.00
2019-06-07T07:56:20.848Z,20.00
2019-06-07T07:58:51.185Z,20.00
2019-06-07T08:01:15.438Z,20.10
2019-06-07T08:03:41.660Z,20.20
2019-06-07T08:06:07.854Z,20.30
2019-06-07T08:08:34.043Z,20.40
2019-06-07T08:11:02.331Z,20.40
2019-06-07T08:13:28.317Z,20.60
2019-06-07T08:15:59.110Z,20.70
2019-06-07T08:18:22.669Z,20.90
2019-06-07T08:21:08.815Z,21.00
2019-06-07T08:23:17.192Z,21.00
2019-06-07T08:25:43.494Z,21.10
2019-06-07T08:28:26.766Z,21.20
2019-06-07T08:31:03.283Z,21.10
2019-06-07T08:33:26.409Z,21.20
2019-06-07T08:36:19.418Z,21.30
2019-06-07T08:38:30.694Z,21.40
2019-06-07T08:40:45.819Z,21.50
2019-06-07T08:43:20.365Z,21.60
2019-06-07T08:45:40.220Z,21.60
2019-06-07T08:48:26.494Z,21.50
2019-06-07T08:50:34.561Z,21.40
2019-06-07T08:53:11.044Z,21.30
2019-06-07T08:55:29.145Z,21.30
2019-06-07T08:58:03.390Z,21.30
2019-06-07T09:02:53.183Z,21.40
2019-06-07T09:05:20.503Z,21.70
2019-06-07T09:07:46.790Z,21.90
2019-06-07T09:10:15.186Z,22.00
2019-06-07T09:12:41.965Z,22.10
2019-06-07T09:15:20.875Z,22.10
2019-06-07T09:17:37.189Z,22.10
2019-06-07T09:20:15.330Z,22.20
2019-06-07T09:22:33.969Z,22.10
2019-06-07T09:25:05.949Z,22.10
2019-06-07T09:27:28.748Z,22.10
2019-06-07T09:30:00.581Z,22.10
2019-06-07T09:32:23.336Z,22.00
2019-06-07T09:34:49.692Z,21.90
2019-06-07T09:38:03.536Z,22.00
2019-06-07T09:39:44.344Z,22.10
2019-06-07T09:42:12.737Z,22.10
2019-06-07T09:44:38.956Z,22.10
2019-06-07T09:47:22.364Z,22.30
2019-06-07T09:49:33.638Z,22.50
2019-06-07T09:52:02.875Z,22.60
2019-06-07T09:55:03.110Z,22.50
2019-06-07T09:57:00.349Z,22.50
2019-06-07T09:59:24.766Z,22.50
2019-06-07T10:01:51.139Z,22.50
2019-06-07T10:04:30.781Z,22.50
2019-06-07T10:06:45.644Z,22.60
2019-06-07T10:10:09.491Z,22.80
2019-06-07T10:11:40.225Z,23.00
2019-06-07T10:14:06.857Z,23.20
2019-06-07T10:16:46.147Z,23.50
2019-06-07T10:19:02.108Z,23.60
2019-06-07T10:21:29.747Z,23.70
2019-06-07T10:23:56.142Z,23.70
2019-06-07T10:26:22.502Z,23.70
2019-06-07T10:28:48.716Z,23.70
2019-06-07T10:31:14.962Z,23.70
2019-06-07T10:33:41.489Z,23.60
2019-06-07T10:36:08.615Z,23.70
2019-06-07T10:38:35.048Z,23.70
2019-06-07T10:41:01.241Z,23.60
2019-06-07T10:43:27.421Z,23.70
2019-06-07T10:45:53.588Z,23.70
2019-06-07T10:48:19.800Z,23.80
2019-06-07T10:50:46.026Z,23.80
2019-06-07T10:53:12.634Z,23.70
2019-06-07T10:55:39.207Z,23.70
2019-06-07T10:58:05.380Z,23.70
2019-06-07T11:00:32.089Z,23.80
2019-06-07T11:02:58.609Z,23.90
2019-06-07T11:05:25.049Z,24.20
2019-06-07T11:07:51.403Z,24.30
2019-06-07T11:10:20.156Z,24.30
2019-06-07T11:12:46.360Z,24.40
2019-06-07T11:15:13.160Z,24.50
2019-06-07T11:17:39.375Z,24.70
2019-06-07T11:20:08.042Z,25.00
2019-06-07T11:22:34.844Z,25.10
2019-06-07T11:25:01.222Z,25.20
2019-06-07T11:27:27.646Z,25.50
2019-06-07T11:29:53.831Z,25.70
2019-06-07T11:32:20.099Z,26.20
2019-06-07T11:34:46.486Z,27.40
2019-06-07T11:37:13.803Z,29.60
2019-06-07T11:39:41.073Z,32.60
2019-06-07T11:42:07.917Z,35.10
2019-06-07T11:44:34.407Z,38.00
2019-06-07T11:47:00.618Z,40.20
2019-06-07T11:49:26.881Z,41.70
2019-06-07T11:51:53.185Z,43.40
2019-06-07T11:54:20.565Z,44.90
2019-06-07T11:56:47.198Z,45.70
2019-06-07T11:59:13.460Z,46.40
2019-06-07T12:01:39.726Z,47.70
2019-06-07T12:04:07.333Z,47.90
2019-06-07T12:06:33.720Z,48.20
2019-06-07T12:08:59.905Z,48.90
2019-06-07T12:11:26.228Z,49.10
2019-06-07T12:13:52.495Z,49.30
2019-06-07T12:16:19.401Z,50.10
2019-06-07T12:19:05.629Z,49.90
2019-06-07T12:21:31.862Z,49.80
2019-06-07T12:23:58.112Z,50.30
2019-06-07T12:26:24.375Z,50.80
2019-06-07T12:28:50.743Z,51.50
2019-06-07T12:31:17.256Z,51.60
2019-06-07T12:33:43.479Z,51.90
2019-06-07T12:36:09.695Z,52.20
2019-06-07T12:38:36.063Z,52.80
2019-06-07T12:41:02.526Z,53.00
2019-06-07T12:43:28.784Z,53.90
2019-06-07T12:45:55.087Z,54.40
2019-06-07T12:48:25.562Z,54.50
2019-06-07T12:50:49.403Z,54.40
2019-06-07T12:53:15.755Z,54.40
2019-06-07T12:55:42.017Z,54.20
2019-06-07T12:58:08.225Z,53.50
2019-06-07T13:00:34.527Z,51.60
2019-06-07T13:03:00.830Z,49.60
2019-06-07T13:05:27.969Z,48.40
2019-06-07T13:07:57.124Z,49.20
2019-06-07T13:10:24.012Z,50.80
2019-06-07T13:12:50.543Z,51.50
2019-06-07T13:15:19.996Z,52.40
2019-06-07T13:17:45.322Z,52.60
2019-06-07T13:20:13.881Z,51.30
2019-06-07T13:22:40.334Z,51.00
2019-06-07T13:25:08.000Z,50.40
2019-06-07T13:27:34.809Z,50.90
2019-06-07T13:30:09.119Z,51.40
2019-06-07T13:32:29.235Z,51.60
2019-06-07T13:34:55.706Z,51.70
2019-06-07T13:37:23.255Z,52.00
2019-06-07T13:39:49.673Z,51.90
2019-06-07T13:42:16.406Z,51.40
2019-06-07T13:44:42.827Z,51.70
2019-06-07T13:47:08.982Z,51.90
2019-06-07T13:49:35.155Z,51.90
2019-06-07T13:52:01.343Z,52.20
2019-06-07T13:54:27.820Z,52.30
2019-06-07T13:57:02.304Z,52.30
2019-06-07T13:59:22.425Z,51.90
2019-06-07T14:01:48.678Z,51.80
2019-06-07T14:04:14.912Z,51.10
2019-06-07T14:40:35.442Z,31.10
2019-06-07T14:43:02.166Z,30.50
2019-06-07T14:45:29.467Z,30.60
2019-06-07T14:47:56.262Z,30.70
2019-06-07T14:50:24.095Z,30.80
2019-06-07T14:52:50.568Z,30.90
2019-06-07T14:55:17.030Z,31.00
2019-06-07T14:57:43.216Z,31.10
2019-06-07T15:00:12.176Z,31.20
2019-06-07T15:02:39.915Z,31.20
2019-06-07T15:05:06.865Z,31.10
2019-06-07T15:07:34.757Z,30.80
2019-06-07T15:10:01.073Z,30.50
2019-06-07T15:12:27.607Z,30.10
2019-06-07T15:14:55.264Z,29.90
2019-06-07T15:17:21.505Z,29.80
2019-06-07T15:19:47.679Z,29.60
2019-06-07T15:22:13.931Z,29.50
2019-06-07T15:24:40.667Z,29.40
2019-06-07T15:27:06.984Z,29.40
2019-06-07T15:29:33.830Z,29.40
2019-06-07T15:32:00.398Z,29.20
2019-06-07T15:34:28.810Z,29.10
2019-06-07T15:36:55.040Z,29.10
2019-06-07T15:39:21.271Z,29.10
2019-06-07T15:41:48.563Z,29.20
2019-06-07T15:44:14.866Z,29.30
2019-06-07T15:46:41.182Z,29.30
2019-06-07T15:49:07.381Z,29.30
2019-06-07T15:51:34.478Z,29.20
2019-06-07T15:54:00.820Z,29.10
2019-06-07T15:56:27.189Z,28.90
2019-06-07T15:58:53.371Z,28.80
2019-06-07T16:01:19.627Z,28.70
2019-06-07T16:03:46.392Z,28.60
2019-06-07T16:06:13.223Z,28.60
2019-06-07T16:08:40.488Z,28.60
2019-06-07T16:11:07.131Z,28.60
2019-06-07T16:13:34.431Z,28.60
2019-06-07T16:16:01.014Z,28.50
2019-06-07T16:18:27.975Z,28.40
2019-06-07T16:20:54.601Z,28.30
2019-06-07T16:23:21.129Z,28.20
2019-06-07T16:25:47.541Z,28.10
2019-06-07T16:28:14.000Z,28.00
2019-06-07T16:30:40.710Z,27.90
2019-06-07T16:33:07.198Z,27.80
2019-06-07T16:35:34.840Z,27.80
2019-06-07T16:38:01.265Z,27.70
2019-06-07T16:40:27.472Z,27.60
2019-06-07T16:42:53.657Z,27.50
2019-06-07T16:45:20.573Z,27.50
2019-06-07T16:47:47.849Z,27.50
2019-06-07T16:50:15.851Z,27.40
2019-06-07T16:52:43.990Z,27.40
2019-06-07T16:55:11.372Z,27.30
2019-06-07T16:57:38.689Z,27.30
2019-06-07T17:00:07.992Z,27.20
2019-06-07T17:02:34.217Z,27.20
2019-06-07T17:05:00.719Z,27.10
2019-06-07T17:07:27.659Z,27.10
2019-06-07T17:09:54.154Z,27.00
2019-06-07T17:12:20.421Z,26.90
2019-06-07T17:14:46.756Z,26.90
2019-06-07T17:17:13.402Z,26.80
2019-06-07T17:19:47.095Z,26.70
2019-06-07T17:22:13.957Z,26.50
2019-06-07T17:24:41.328Z,26.40
2019-06-07T17:27:08.137Z,26.00
2019-06-07T17:29:34.579Z,25.30
2019-06-07T17:32:01.063Z,24.60
2019-06-07T17:34:27.366Z,23.90
2019-06-07T17:36:54.106Z,23.30
2019-06-07T17:39:20.324Z,23.00
2019-06-07T17:41:58.650Z,22.90
2019-06-07T17:44:15.147Z,22.90
2019-06-07T17:46:41.642Z,22.90
2019-06-07T17:49:08.068Z,23.00
2019-06-07T17:51:34.659Z,23.00
2019-06-07T17:54:00.940Z,22.90
2019-06-07T17:56:28.028Z,22.80
2019-06-07T17:58:54.679Z,22.80
2019-06-07T18:01:21.041Z,22.70
2019-06-07T18:03:47.398Z,22.60
2019-06-07T18:06:14.707Z,22.50
2019-06-07T18:08:41.266Z,22.50
2019-06-07T18:11:07.510Z,22.40
2019-06-07T18:13:34.124Z,22.20
2019-06-07T18:16:00.786Z,22.00
2019-06-07T18:18:27.424Z,21.90
2019-06-07T18:20:53.769Z,21.80
2019-06-07T18:23:20.917Z,21.80
2019-06-07T18:25:48.484Z,21.70
2019-06-07T18:28:16.610Z,21.60
2019-06-07T18:30:43.005Z,21.60
2019-06-07T18:33:09.274Z,21.50
2019-06-07T18:35:35.586Z,21.40
2019-06-07T18:38:02.875Z,21.40
2019-06-07T18:40:29.111Z,21.30
2019-06-07T18:42:55.356Z,21.30
2019-06-07T18:45:21.974Z,21.30
2019-06-07T18:47:49.441Z,21.30
2019-06-07T18:50:16.176Z,21.30
2019-06-07T18:52:44.426Z,21.30
2019-06-07T18:55:11.516Z,21.30
2019-06-07T18:57:38.198Z,21.30
2019-06-07T19:00:10.892Z,21.20
2019-06-07T19:02:38.701Z,21.10
2019-06-07T19:05:06.649Z,21.10
2019-06-07T19:07:33.107Z,21.10
2019-06-07T19:09:59.551Z,21.10
2019-06-07T19:12:25.922Z,21.10
2019-06-07T19:14:53.480Z,21.10
2019-06-07T19:17:19.864Z,21.10
2019-06-07T19:19:46.255Z,21.00
2019-06-07T19:22:12.624Z,21.00
2019-06-07T19:24:39.088Z,21.00
2019-06-07T19:27:05.404Z,21.00
2019-06-07T19:29:32.107Z,20.90
2019-06-07T19:31:59.089Z,20.90
2019-06-07T19:34:25.520Z,21.00
2019-06-07T19:36:51.875Z,21.00
2019-06-07T19:39:18.397Z,21.00
2019-06-07T19:41:44.804Z,21.00
2019-06-07T19:44:11.368Z,21.00
2019-06-07T19:46:37.845Z,20.90
2019-06-07T19:49:04.483Z,21.00
2019-06-07T19:51:30.863Z,20.90
2019-06-07T19:53:57.311Z,21.00
2019-06-07T19:56:23.916Z,20.90
2019-06-07T19:58:50.600Z,20.80
2019-06-07T20:01:16.934Z,20.70
2019-06-07T20:03:43.483Z,20.70
2019-06-07T20:06:09.865Z,20.70
2019-06-07T20:08:36.167Z,20.70
2019-06-07T20:11:02.802Z,20.60
2019-06-07T20:13:29.588Z,20.60
2019-06-07T20:15:56.858Z,20.50
2019-06-07T20:18:23.330Z,20.50
2019-06-07T20:20:49.603Z,20.40
2019-06-07T20:23:16.128Z,20.40
2019-06-07T20:25:42.506Z,20.40
2019-06-07T20:28:09.435Z,20.30
2019-06-07T20:30:36.124Z,20.20
2019-06-07T20:33:03.972Z,20.20
2019-06-07T20:35:30.436Z,20.20
2019-06-07T20:37:56.859Z,20.20
2019-06-07T20:40:24.817Z,20.20
2019-06-07T20:42:51.405Z,20.10
2019-06-07T20:45:32.673Z,20.10
2019-06-07T20:47:47.550Z,20.00
2019-06-07T20:50:14.548Z,20.00
2019-06-07T20:52:41.135Z,20.00
2019-06-07T20:55:09.412Z,19.90
2019-06-07T20:57:36.527Z,19.90
2019-06-07T21:00:16.008Z,19.90
2019-06-07T21:02:36.965Z,19.80
2019-06-07T21:05:07.581Z,19.90
2019-06-07T21:07:34.174Z,19.80
2019-06-07T21:10:01.734Z,19.80
2019-06-07T21:12:28.122Z,19.80
2019-06-07T21:14:54.380Z,19.80
2019-06-07T21:17:20.769Z,19.80
2019-06-07T21:19:47.213Z,19.80
2019-06-07T21:22:13.597Z,19.70
2019-06-07T21:24:39.971Z,19.70
2019-06-07T21:27:07.446Z,19.70
2019-06-07T21:29:33.954Z,19.70
2019-06-07T21:32:01.276Z,19.70
2019-06-07T21:34:27.814Z,19.70
2019-06-07T21:36:54.181Z,19.60
2019-06-07T21:39:20.617Z,19.60
2019-06-07T21:41:47.100Z,19.50
2019-06-07T21:44:13.456Z,19.50
2019-06-07T21:46:39.710Z,19.50
2019-06-07T21:49:06.435Z,19.50
2019-06-07T21:51:33.004Z,19.60
2019-06-07T21:53:59.469Z,19.60
2019-06-07T21:56:25.761Z,19.50
2019-06-07T21:58:52.284Z,19.40
2019-06-07T22:01:20.072Z,19.40
2019-06-07T22:03:46.931Z,19.40
2019-06-07T22:06:13.982Z,19.30
2019-06-07T22:08:40.447Z,19.40
2019-06-07T22:11:08.248Z,19.30
2019-06-07T22:13:34.806Z,19.30
2019-06-07T22:16:01.335Z,19.20
2019-06-07T22:18:27.797Z,19.20
2019-06-07T22:20:54.043Z,19.20
2019-06-07T22:23:20.373Z,19.10
2019-06-07T22:25:46.669Z,19.10
2019-06-07T22:28:14.299Z,19.10
2019-06-07T22:30:40.789Z,19.00
2019-06-07T22:33:08.574Z,19.00
2019-06-07T22:35:35.301Z,19.00
2019-06-07T22:38:01.688Z,19.00
2019-06-07T22:40:27.972Z,19.00
2019-06-07T22:42:54.189Z,18.90
2019-06-07T22:45:20.770Z,18.90
2019-06-07T22:47:47.422Z,18.90
2019-06-07T22:50:14.506Z,18.90
2019-06-07T22:52:41.125Z,18.90
2019-06-07T22:55:07.891Z,18.90
2019-06-07T22:57:36.048Z,18.90
2019-06-07T23:00:09.364Z,19.00
2019-06-07T23:02:33.250Z,19.00
2019-06-07T23:04:59.694Z,19.00
2019-06-07T23:07:25.942Z,18.90
2019-06-07T23:09:52.307Z,18.90
2019-06-07T23:12:19.578Z,19.00
2019-06-07T23:14:46.019Z,18.90
2019-06-07T23:17:13.738Z,18.90
2019-06-07T23:19:40.235Z,18.90
2019-06-07T23:22:06.467Z,18.90
2019-06-07T23:24:32.790Z,18.90
2019-06-07T23:26:59.167Z,18.90
2019-06-07T23:29:25.822Z,18.90
2019-06-07T23:31:52.348Z,18.80
2019-06-07T23:34:18.839Z,18.80
2019-06-07T23:36:45.464Z,18.70
2019-06-07T23:39:13.130Z,18.70
2019-06-07T23:41:39.615Z,18.70
2019-06-07T23:44:05.836Z,18.60
2019-06-07T23:46:32.132Z,18.60
2019-06-07T23:48:58.430Z,18.50
2019-06-07T23:51:24.745Z,18.40
2019-06-07T23:53:51.300Z,18.40
2019-06-07T23:56:18.571Z,18.40
2019-06-07T23:58:45.323Z,18.40
